sensor_id;sensor_type;location;lat;lon;timestamp;P1;durP1;ratioP1;P2;durP2;ratioP2
10410;SDS011;5251;52.112;8.606;2023-09-12T00:01:28;2.10;;;1.90;;
10410;SDS011;5251;52.112;8.606;2023-09-12T00:03:57;2.00;;;1.80;;
10410;SDS011;5251;52.112;8.606;2023-09-12T00:06:23;3.00;;;1.73;;
10410;SDS011;5251;52.112;8.606;2023-09-12T00:08:49;2.00;;;1.83;;
10410;SDS011;5251;52.112;8.606;2023-09-12T00:11:16;3.33;;;1.92;;
10410;SDS011;5251;52.112;8.606;2023-09-12T00:13:41;3.10;;;1.75;;
10410;SDS011;5251;52.112;8.606;2023-09-12T00:16:07;2.00;;;1.80;;
10410;SDS011;5251;52.112;8.606;2023-09-12T00:18:36;3.47;;;1.83;;
10410;SDS011;5251;52.112;8.606;2023-09-12T00:21:04;2.65;;;1.88;;
10410;SDS011;5251;52.112;8.606;2023-09-12T00:23:30;2.88;;;1.73;;
10410;SDS011;5251;52.112;8.606;2023-09-12T00:25:56;2.85;;;1.92;;
10410;SDS011;5251;52.112;8.606;2023-09-12T00:28:22;3.03;;;1.88;;
10410;SDS011;5251;52.112;8.606;2023-09-12T00:30:48;2.25;;;1.80;;
10410;SDS011;5251;52.112;8.606;2023-09-12T00:33:13;2.60;;;1.90;;
10410;SDS011;5251;52.112;8.606;2023-09-12T00:35:39;2.45;;;1.90;;
10410;SDS011;5251;52.112;8.606;2023-09-12T00:38:04;2.20;;;1.90;;
10410;SDS011;5251;52.112;8.606;2023-09-12T00:40:31;3.20;;;1.70;;
10410;SDS011;5251;52.112;8.606;2023-09-12T00:42:57;3.28;;;1.70;;
10410;SDS011;5251;52.112;8.606;2023-09-12T00:45:23;2.10;;;1.60;;
10410;SDS011;5251;52.112;8.606;2023-09-12T00:47:49;2.38;;;1.80;;
10410;SDS011;5251;52.112;8.606;2023-09-12T00:50:16;3.45;;;2.00;;
10410;SDS011;5251;52.112;8.606;2023-09-12T00:52:42;3.22;;;1.98;;
10410;SDS011;5251;52.112;8.606;2023-09-12T00:55:09;3.80;;;2.13;;
10410;SDS011;5251;52.112;8.606;2023-09-12T00:57:34;2.53;;;2.10;;
10410;SDS011;5251;52.112;8.606;2023-09-12T01:00:04;4.78;;;1.90;;
10410;SDS011;5251;52.112;8.606;2023-09-12T01:02:36;1.90;;;1.70;;
10410;SDS011;5251;52.112;8.606;2023-09-12T01:05:03;4.18;;;2.40;;
10410;SDS011;5251;52.112;8.606;2023-09-12T01:07:30;3.58;;;2.28;;
10410;SDS011;5251;52.112;8.606;2023-09-12T01:09:55;2.75;;;2.50;;
10410;SDS011;5251;52.112;8.606;2023-09-12T01:12:21;4.78;;;2.72;;
10410;SDS011;5251;52.112;8.606;2023-09-12T01:14:47;3.38;;;2.75;;
10410;SDS011;5251;52.112;8.606;2023-09-12T01:17:12;3.80;;;3.47;;
10410;SDS011;5251;52.112;8.606;2023-09-12T01:19:38;4.45;;;4.00;;
10410;SDS011;5251;52.112;8.606;2023-09-12T01:22:21;5.10;;;4.60;;
10410;SDS011;5251;52.112;8.606;2023-09-12T01:27:41;7.97;;;6.78;;
10410;SDS011;5251;52.112;8.606;2023-09-12T01:30:08;9.38;;;7.30;;
10410;SDS011;5251;52.112;8.606;2023-09-12T01:32:35;8.32;;;6.97;;
10410;SDS011;5251;52.112;8.606;2023-09-12T01:35:03;8.52;;;7.30;;
10410;SDS011;5251;52.112;8.606;2023-09-12T01:37:30;11.95;;;9.73;;
10410;SDS011;5251;52.112;8.606;2023-09-12T01:39:56;9.55;;;8.52;;
10410;SDS011;5251;52.112;8.606;2023-09-12T01:42:22;10.60;;;8.30;;
10410;SDS011;5251;52.112;8.606;2023-09-12T01:44:54;8.80;;;7.88;;
10410;SDS011;5251;52.112;8.606;2023-09-12T01:47:21;9.07;;;7.35;;
10410;SDS011;5251;52.112;8.606;2023-09-12T01:49:49;8.48;;;6.75;;
10410;SDS011;5251;52.112;8.606;2023-09-12T01:52:17;9.23;;;8.30;;
10410;SDS011;5251;52.112;8.606;2023-09-12T01:54:44;8.88;;;7.35;;
10410;SDS011;5251;52.112;8.606;2023-09-12T01:57:10;8.02;;;7.22;;
10410;SDS011;5251;52.112;8.606;2023-09-12T01:59:37;8.82;;;7.93;;
10410;SDS011;5251;52.112;8.606;2023-09-12T02:02:03;9.23;;;7.97;;
10410;SDS011;5251;52.112;8.606;2023-09-12T02:04:28;9.48;;;8.05;;
10410;SDS011;5251;52.112;8.606;2023-09-12T02:06:54;8.98;;;8.07;;
10410;SDS011;5251;52.112;8.606;2023-09-12T02:09:20;9.65;;;8.55;;
10410;SDS011;5251;52.112;8.606;2023-09-12T02:11:45;8.07;;;7.28;;
10410;SDS011;5251;52.112;8.606;2023-09-12T02:14:11;8.50;;;7.63;;
10410;SDS011;5251;52.112;8.606;2023-09-12T02:16:37;9.57;;;8.57;;
10410;SDS011;5251;52.112;8.606;2023-09-12T02:19:03;9.65;;;8.75;;
10410;SDS011;5251;52.112;8.606;2023-09-12T02:21:29;8.95;;;7.97;;
10410;SDS011;5251;52.112;8.606;2023-09-12T02:23:55;10.20;;;9.20;;
10410;SDS011;5251;52.112;8.606;2023-09-12T02:26:21;13.40;;;9.27;;
10410;SDS011;5251;52.112;8.606;2023-09-12T02:28:46;11.38;;;9.68;;
10410;SDS011;5251;52.112;8.606;2023-09-12T02:31:12;11.27;;;9.25;;
10410;SDS011;5251;52.112;8.606;2023-09-12T02:33:38;11.43;;;10.13;;
10410;SDS011;5251;52.112;8.606;2023-09-12T02:36:04;12.77;;;11.45;;
10410;SDS011;5251;52.112;8.606;2023-09-12T02:38:30;12.80;;;11.43;;
10410;SDS011;5251;52.112;8.606;2023-09-12T02:40:56;13.75;;;12.35;;
10410;SDS011;5251;52.112;8.606;2023-09-12T02:43:21;15.02;;;11.02;;
10410;SDS011;5251;52.112;8.606;2023-09-12T02:45:47;13.75;;;12.02;;
10410;SDS011;5251;52.112;8.606;2023-09-12T02:48:13;13.90;;;12.50;;
10410;SDS011;5251;52.112;8.606;2023-09-12T02:50:38;13.80;;;12.40;;
10410;SDS011;5251;52.112;8.606;2023-09-12T02:53:04;14.63;;;12.60;;
10410;SDS011;5251;52.112;8.606;2023-09-12T02:55:29;14.15;;;12.65;;
10410;SDS011;5251;52.112;8.606;2023-09-12T02:57:55;14.48;;;13.02;;
10410;SDS011;5251;52.112;8.606;2023-09-12T03:00:21;15.10;;;13.50;;
10410;SDS011;5251;52.112;8.606;2023-09-12T03:02:47;14.55;;;13.07;;
10410;SDS011;5251;52.112;8.606;2023-09-12T03:05:12;14.85;;;13.35;;
10410;SDS011;5251;52.112;8.606;2023-09-12T03:07:38;13.90;;;12.50;;
10410;SDS011;5251;52.112;8.606;2023-09-12T03:10:04;13.95;;;12.55;;
10410;SDS011;5251;52.112;8.606;2023-09-12T03:12:30;15.68;;;12.90;;
10410;SDS011;5251;52.112;8.606;2023-09-12T03:14:56;15.10;;;12.38;;
10410;SDS011;5251;52.112;8.606;2023-09-12T03:17:21;15.75;;;13.40;;
10410;SDS011;5251;52.112;8.606;2023-09-12T03:19:47;15.90;;;12.40;;
10410;SDS011;5251;52.112;8.606;2023-09-12T03:22:12;12.43;;;11.23;;
10410;SDS011;5251;52.112;8.606;2023-09-12T03:24:38;12.30;;;11.10;;
10410;SDS011;5251;52.112;8.606;2023-09-12T03:27:04;11.77;;;10.50;;
10410;SDS011;5251;52.112;8.606;2023-09-12T03:29:29;11.50;;;10.38;;
10410;SDS011;5251;52.112;8.606;2023-09-12T03:31:55;12.30;;;10.05;;
10410;SDS011;5251;52.112;8.606;2023-09-12T03:34:20;10.13;;;9.02;;
10410;SDS011;5251;52.112;8.606;2023-09-12T03:36:46;9.25;;;8.35;;
10410;SDS011;5251;52.112;8.606;2023-09-12T03:39:11;8.48;;;7.63;;
10410;SDS011;5251;52.112;8.606;2023-09-12T03:41:38;11.57;;;7.60;;
10410;SDS011;5251;52.112;8.606;2023-09-12T03:44:04;9.35;;;8.35;;
10410;SDS011;5251;52.112;8.606;2023-09-12T03:46:30;9.80;;;8.57;;
10410;SDS011;5251;52.112;8.606;2023-09-12T03:48:55;9.95;;;8.30;;
10410;SDS011;5251;52.112;8.606;2023-09-12T03:51:21;9.25;;;8.30;;
10410;SDS011;5251;52.112;8.606;2023-09-12T03:53:47;9.25;;;8.35;;
10410;SDS011;5251;52.112;8.606;2023-09-12T03:56:14;9.18;;;8.15;;
10410;SDS011;5251;52.112;8.606;2023-09-12T03:58:40;9.52;;;8.38;;
10410;SDS011;5251;52.112;8.606;2023-09-12T04:01:06;9.30;;;8.40;;
10410;SDS011;5251;52.112;8.606;2023-09-12T04:03:32;9.25;;;8.30;;
10410;SDS011;5251;52.112;8.606;2023-09-12T04:05:57;9.48;;;8.02;;
10410;SDS011;5251;52.112;8.606;2023-09-12T04:08:23;8.30;;;7.50;;
10410;SDS011;5251;52.112;8.606;2023-09-12T04:10:49;10.07;;;9.07;;
10410;SDS011;5251;52.112;8.606;2023-09-12T04:13:14;158.20;;;20.85;;
10410;SDS011;5251;52.112;8.606;2023-09-12T04:15:40;12.55;;;8.52;;
10410;SDS011;5251;52.112;8.606;2023-09-12T04:18:05;10.85;;;6.80;;
10410;SDS011;5251;52.112;8.606;2023-09-12T04:20:31;8.10;;;6.85;;
10410;SDS011;5251;52.112;8.606;2023-09-12T04:22:57;6.43;;;5.43;;
10410;SDS011;5251;52.112;8.606;2023-09-12T04:25:25;6.22;;;5.60;;
10410;SDS011;5251;52.112;8.606;2023-09-12T04:27:51;6.70;;;5.82;;
10410;SDS011;5251;52.112;8.606;2023-09-12T04:30:17;7.75;;;6.10;;
10410;SDS011;5251;52.112;8.606;2023-09-12T04:32:42;9.75;;;5.93;;
10410;SDS011;5251;52.112;8.606;2023-09-12T04:35:08;9.85;;;6.88;;
10410;SDS011;5251;52.112;8.606;2023-09-12T04:37:34;8.07;;;7.18;;
10410;SDS011;5251;52.112;8.606;2023-09-12T04:40:00;12.15;;;8.30;;
10410;SDS011;5251;52.112;8.606;2023-09-12T04:42:25;10.93;;;7.18;;
10410;SDS011;5251;52.112;8.606;2023-09-12T04:44:51;9.40;;;6.65;;
10410;SDS011;5251;52.112;8.606;2023-09-12T04:47:17;9.48;;;6.18;;
10410;SDS011;5251;52.112;8.606;2023-09-12T04:49:43;9.10;;;6.05;;
10410;SDS011;5251;52.112;8.606;2023-09-12T04:52:09;8.73;;;5.82;;
10410;SDS011;5251;52.112;8.606;2023-09-12T04:54:34;9.13;;;5.60;;
10410;SDS011;5251;52.112;8.606;2023-09-12T04:57:01;9.70;;;5.55;;
10410;SDS011;5251;52.112;8.606;2023-09-12T04:59:27;9.27;;;5.57;;
10410;SDS011;5251;52.112;8.606;2023-09-12T05:01:52;6.70;;;5.63;;
10410;SDS011;5251;52.112;8.606;2023-09-12T05:04:18;11.30;;;6.47;;
10410;SDS011;5251;52.112;8.606;2023-09-12T05:06:44;9.00;;;6.82;;
10410;SDS011;5251;52.112;8.606;2023-09-12T05:09:09;8.55;;;6.43;;
10410;SDS011;5251;52.112;8.606;2023-09-12T05:11:36;8.95;;;6.95;;
10410;SDS011;5251;52.112;8.606;2023-09-12T05:14:01;8.30;;;6.55;;
10410;SDS011;5251;52.112;8.606;2023-09-12T05:16:28;8.75;;;6.75;;
10410;SDS011;5251;52.112;8.606;2023-09-12T05:18:54;8.20;;;6.43;;
10410;SDS011;5251;52.112;8.606;2023-09-12T05:21:20;6.50;;;5.65;;
10410;SDS011;5251;52.112;8.606;2023-09-12T05:23:45;7.00;;;5.63;;
10410;SDS011;5251;52.112;8.606;2023-09-12T05:26:11;5.60;;;5.00;;
10410;SDS011;5251;52.112;8.606;2023-09-12T05:28:37;7.97;;;5.78;;
10410;SDS011;5251;52.112;8.606;2023-09-12T05:31:02;6.78;;;6.03;;
10410;SDS011;5251;52.112;8.606;2023-09-12T05:33:28;6.53;;;5.28;;
10410;SDS011;5251;52.112;8.606;2023-09-12T05:35:53;6.40;;;5.55;;
10410;SDS011;5251;52.112;8.606;2023-09-12T05:38:19;5.57;;;5.05;;
10410;SDS011;5251;52.112;8.606;2023-09-12T05:40:45;7.22;;;5.47;;
10410;SDS011;5251;52.112;8.606;2023-09-12T05:43:10;6.60;;;5.18;;
10410;SDS011;5251;52.112;8.606;2023-09-12T05:45:36;7.85;;;5.80;;
10410;SDS011;5251;52.112;8.606;2023-09-12T05:48:02;6.07;;;5.30;;
10410;SDS011;5251;52.112;8.606;2023-09-12T05:50:29;6.47;;;5.65;;
10410;SDS011;5251;52.112;8.606;2023-09-12T05:52:54;6.80;;;5.07;;
10410;SDS011;5251;52.112;8.606;2023-09-12T05:55:20;6.55;;;5.43;;
10410;SDS011;5251;52.112;8.606;2023-09-12T05:57:45;5.93;;;5.38;;
10410;SDS011;5251;52.112;8.606;2023-09-12T06:00:17;6.22;;;5.55;;
10410;SDS011;5251;52.112;8.606;2023-09-12T06:02:43;6.80;;;6.10;;
10410;SDS011;5251;52.112;8.606;2023-09-12T06:05:08;7.32;;;5.78;;
10410;SDS011;5251;52.112;8.606;2023-09-12T06:07:34;6.40;;;5.55;;
10410;SDS011;5251;52.112;8.606;2023-09-12T06:10:00;6.97;;;6.10;;
10410;SDS011;5251;52.112;8.606;2023-09-12T06:12:26;9.18;;;7.03;;
10410;SDS011;5251;52.112;8.606;2023-09-12T06:14:52;12.82;;;6.20;;
10410;SDS011;5251;52.112;8.606;2023-09-12T06:17:20;7.40;;;6.20;;
10410;SDS011;5251;52.112;8.606;2023-09-12T06:19:46;7.35;;;6.32;;
10410;SDS011;5251;52.112;8.606;2023-09-12T06:22:14;8.30;;;6.28;;
10410;SDS011;5251;52.112;8.606;2023-09-12T06:24:40;7.38;;;6.30;;
10410;SDS011;5251;52.112;8.606;2023-09-12T06:27:05;7.38;;;6.00;;
10410;SDS011;5251;52.112;8.606;2023-09-12T06:29:31;7.53;;;6.78;;
10410;SDS011;5251;52.112;8.606;2023-09-12T06:31:57;8.45;;;6.28;;
10410;SDS011;5251;52.112;8.606;2023-09-12T06:34:22;7.32;;;6.05;;
10410;SDS011;5251;52.112;8.606;2023-09-12T06:36:48;7.50;;;6.70;;
10410;SDS011;5251;52.112;8.606;2023-09-12T06:39:13;8.00;;;6.55;;
10410;SDS011;5251;52.112;8.606;2023-09-12T06:41:39;7.55;;;6.85;;
10410;SDS011;5251;52.112;8.606;2023-09-12T06:44:04;9.68;;;6.90;;
10410;SDS011;5251;52.112;8.606;2023-09-12T06:46:31;6.97;;;6.28;;
10410;SDS011;5251;52.112;8.606;2023-09-12T06:49:00;9.13;;;6.75;;
10410;SDS011;5251;52.112;8.606;2023-09-12T06:51:26;7.22;;;6.53;;
10410;SDS011;5251;52.112;8.606;2023-09-12T06:53:52;9.13;;;6.57;;
10410;SDS011;5251;52.112;8.606;2023-09-12T06:56:18;9.15;;;6.75;;
10410;SDS011;5251;52.112;8.606;2023-09-12T06:58:43;10.50;;;7.28;;
10410;SDS011;5251;52.112;8.606;2023-09-12T07:01:09;7.88;;;7.10;;
10410;SDS011;5251;52.112;8.606;2023-09-12T07:03:35;8.65;;;7.75;;
10410;SDS011;5251;52.112;8.606;2023-09-12T07:06:01;8.20;;;6.60;;
10410;SDS011;5251;52.112;8.606;2023-09-12T07:08:29;8.45;;;7.30;;
10410;SDS011;5251;52.112;8.606;2023-09-12T07:10:55;8.98;;;7.18;;
10410;SDS011;5251;52.112;8.606;2023-09-12T07:13:22;8.05;;;7.07;;
10410;SDS011;5251;52.112;8.606;2023-09-12T07:15:49;7.38;;;6.43;;
10410;SDS011;5251;52.112;8.606;2023-09-12T07:18:15;7.88;;;6.30;;
10410;SDS011;5251;52.112;8.606;2023-09-12T07:20:41;7.55;;;5.72;;
10410;SDS011;5251;52.112;8.606;2023-09-12T07:23:06;7.13;;;5.32;;
10410;SDS011;5251;52.112;8.606;2023-09-12T07:25:38;11.60;;;6.70;;
10410;SDS011;5251;52.112;8.606;2023-09-12T07:28:08;7.10;;;5.75;;
10410;SDS011;5251;52.112;8.606;2023-09-12T07:30:33;6.70;;;6.10;;
10410;SDS011;5251;52.112;8.606;2023-09-12T07:32:59;8.55;;;5.70;;
10410;SDS011;5251;52.112;8.606;2023-09-12T07:35:25;7.10;;;5.57;;
10410;SDS011;5251;52.112;8.606;2023-09-12T07:37:51;7.30;;;5.53;;
10410;SDS011;5251;52.112;8.606;2023-09-12T07:40:16;9.63;;;6.03;;
10410;SDS011;5251;52.112;8.606;2023-09-12T07:42:43;120.88;;;18.30;;
10410;SDS011;5251;52.112;8.606;2023-09-12T07:45:08;8.25;;;6.35;;
10410;SDS011;5251;52.112;8.606;2023-09-12T07:47:34;7.18;;;5.53;;
10410;SDS011;5251;52.112;8.606;2023-09-12T07:50:00;7.97;;;5.78;;
10410;SDS011;5251;52.112;8.606;2023-09-12T07:52:26;173.15;;;21.23;;
10410;SDS011;5251;52.112;8.606;2023-09-12T07:54:52;10.07;;;6.85;;
10410;SDS011;5251;52.112;8.606;2023-09-12T07:57:23;21.02;;;13.65;;
10410;SDS011;5251;52.112;8.606;2023-09-12T07:59:49;12.68;;;8.70;;
10410;SDS011;5251;52.112;8.606;2023-09-12T08:02:14;20.77;;;12.38;;
10410;SDS011;5251;52.112;8.606;2023-09-12T08:04:40;11.48;;;8.23;;
10410;SDS011;5251;52.112;8.606;2023-09-12T08:07:06;13.73;;;9.52;;
10410;SDS011;5251;52.112;8.606;2023-09-12T08:12:20;9.40;;;7.93;;
10410;SDS011;5251;52.112;8.606;2023-09-12T08:14:47;17.98;;;10.25;;
10410;SDS011;5251;52.112;8.606;2023-09-12T08:17:13;17.15;;;10.50;;
10410;SDS011;5251;52.112;8.606;2023-09-12T08:19:39;14.77;;;9.38;;
10410;SDS011;5251;52.112;8.606;2023-09-12T08:22:05;10.00;;;8.23;;
10410;SDS011;5251;52.112;8.606;2023-09-12T08:24:32;12.05;;;8.50;;
10410;SDS011;5251;52.112;8.606;2023-09-12T08:26:58;24.20;;;9.70;;
10410;SDS011;5251;52.112;8.606;2023-09-12T08:29:24;15.07;;;9.05;;
10410;SDS011;5251;52.112;8.606;2023-09-12T08:31:50;12.65;;;9.00;;
10410;SDS011;5251;52.112;8.606;2023-09-12T08:34:15;15.18;;;9.80;;
10410;SDS011;5251;52.112;8.606;2023-09-12T08:36:41;12.10;;;9.05;;
10410;SDS011;5251;52.112;8.606;2023-09-12T08:39:11;13.85;;;8.70;;
10410;SDS011;5251;52.112;8.606;2023-09-12T08:41:38;11.50;;;7.75;;
10410;SDS011;5251;52.112;8.606;2023-09-12T08:44:04;11.18;;;7.88;;
10410;SDS011;5251;52.112;8.606;2023-09-12T08:46:31;7.55;;;6.05;;
10410;SDS011;5251;52.112;8.606;2023-09-12T08:48:56;8.63;;;6.65;;
10410;SDS011;5251;52.112;8.606;2023-09-12T08:51:23;7.68;;;6.50;;
10410;SDS011;5251;52.112;8.606;2023-09-12T08:53:51;8.93;;;7.32;;
10410;SDS011;5251;52.112;8.606;2023-09-12T08:56:17;9.00;;;6.85;;
10410;SDS011;5251;52.112;8.606;2023-09-12T08:58:43;9.27;;;6.85;;
10410;SDS011;5251;52.112;8.606;2023-09-12T09:01:10;11.95;;;6.80;;
10410;SDS011;5251;52.112;8.606;2023-09-12T09:03:39;8.85;;;6.65;;
10410;SDS011;5251;52.112;8.606;2023-09-12T09:06:08;7.07;;;6.07;;
10410;SDS011;5251;52.112;8.606;2023-09-12T09:08:35;7.50;;;5.82;;
10410;SDS011;5251;52.112;8.606;2023-09-12T09:11:01;8.27;;;6.75;;
10410;SDS011;5251;52.112;8.606;2023-09-12T09:13:28;7.93;;;5.97;;
10410;SDS011;5251;52.112;8.606;2023-09-12T09:16:10;9.55;;;6.85;;
10410;SDS011;5251;52.112;8.606;2023-09-12T09:21:36;7.93;;;6.43;;
10410;SDS011;5251;52.112;8.606;2023-09-12T09:24:06;9.82;;;7.07;;
10410;SDS011;5251;52.112;8.606;2023-09-12T09:26:46;8.23;;;6.80;;
10410;SDS011;5251;52.112;8.606;2023-09-12T09:29:16;7.47;;;6.20;;
10410;SDS011;5251;52.112;8.606;2023-09-12T09:31:43;11.45;;;7.28;;
10410;SDS011;5251;52.112;8.606;2023-09-12T09:34:14;9.23;;;6.93;;
10410;SDS011;5251;52.112;8.606;2023-09-12T09:36:46;9.75;;;7.10;;
10410;SDS011;5251;52.112;8.606;2023-09-12T09:39:18;11.57;;;7.18;;
10410;SDS011;5251;52.112;8.606;2023-09-12T09:41:47;10.25;;;6.88;;
10410;SDS011;5251;52.112;8.606;2023-09-12T09:44:17;9.13;;;7.15;;
10410;SDS011;5251;52.112;8.606;2023-09-12T09:46:43;10.23;;;7.60;;
10410;SDS011;5251;52.112;8.606;2023-09-12T09:49:10;9.13;;;7.35;;
10410;SDS011;5251;52.112;8.606;2023-09-12T09:51:43;11.73;;;8.70;;
10410;SDS011;5251;52.112;8.606;2023-09-12T09:54:12;10.23;;;7.93;;
10410;SDS011;5251;52.112;8.606;2023-09-12T09:56:45;10.07;;;7.55;;
10410;SDS011;5251;52.112;8.606;2023-09-12T09:59:13;12.80;;;8.07;;
10410;SDS011;5251;52.112;8.606;2023-09-12T10:01:40;11.98;;;8.43;;
10410;SDS011;5251;52.112;8.606;2023-09-12T10:04:08;13.23;;;7.80;;
10410;SDS011;5251;52.112;8.606;2023-09-12T10:06:35;10.98;;;8.15;;
10410;SDS011;5251;52.112;8.606;2023-09-12T10:09:03;13.82;;;8.23;;
10410;SDS011;5251;52.112;8.606;2023-09-12T10:11:32;13.02;;;7.88;;
10410;SDS011;5251;52.112;8.606;2023-09-12T10:13:59;9.38;;;7.50;;
10410;SDS011;5251;52.112;8.606;2023-09-12T10:16:31;11.43;;;8.43;;
10410;SDS011;5251;52.112;8.606;2023-09-12T10:21:50;11.98;;;8.25;;
10410;SDS011;5251;52.112;8.606;2023-09-12T10:24:37;13.05;;;8.20;;
10410;SDS011;5251;52.112;8.606;2023-09-12T10:27:04;9.82;;;7.53;;
10410;SDS011;5251;52.112;8.606;2023-09-12T10:29:31;11.55;;;8.10;;
10410;SDS011;5251;52.112;8.606;2023-09-12T10:31:57;13.38;;;8.10;;
10410;SDS011;5251;52.112;8.606;2023-09-12T10:34:24;10.77;;;7.82;;
10410;SDS011;5251;52.112;8.606;2023-09-12T10:36:51;11.35;;;8.23;;
10410;SDS011;5251;52.112;8.606;2023-09-12T10:39:20;10.95;;;7.88;;
10410;SDS011;5251;52.112;8.606;2023-09-12T10:41:47;10.68;;;7.40;;
10410;SDS011;5251;52.112;8.606;2023-09-12T10:44:17;9.70;;;7.03;;
10410;SDS011;5251;52.112;8.606;2023-09-12T10:46:43;11.52;;;7.95;;
10410;SDS011;5251;52.112;8.606;2023-09-12T10:49:11;11.35;;;8.07;;
10410;SDS011;5251;52.112;8.606;2023-09-12T10:51:38;12.70;;;8.90;;
10410;SDS011;5251;52.112;8.606;2023-09-12T10:54:08;11.27;;;8.07;;
10410;SDS011;5251;52.112;8.606;2023-09-12T10:56:37;10.93;;;8.13;;
10410;SDS011;5251;52.112;8.606;2023-09-12T11:01:29;8.73;;;6.57;;
10410;SDS011;5251;52.112;8.606;2023-09-12T11:03:56;8.70;;;6.68;;
10410;SDS011;5251;52.112;8.606;2023-09-12T11:06:22;7.93;;;6.13;;
10410;SDS011;5251;52.112;8.606;2023-09-12T11:11:47;8.52;;;6.63;;
10410;SDS011;5251;52.112;8.606;2023-09-12T11:14:35;7.07;;;6.07;;
10410;SDS011;5251;52.112;8.606;2023-09-12T11:19:48;9.68;;;6.70;;
10410;SDS011;5251;52.112;8.606;2023-09-12T11:24:52;7.28;;;6.40;;
10410;SDS011;5251;52.112;8.606;2023-09-12T11:27:18;9.23;;;6.78;;
10410;SDS011;5251;52.112;8.606;2023-09-12T11:29:44;7.15;;;6.45;;
10410;SDS011;5251;52.112;8.606;2023-09-12T11:32:11;7.07;;;5.72;;
10410;SDS011;5251;52.112;8.606;2023-09-12T11:34:52;6.85;;;5.50;;
10410;SDS011;5251;52.112;8.606;2023-09-12T11:37:26;5.15;;;4.63;;
10410;SDS011;5251;52.112;8.606;2023-09-12T11:39:53;4.05;;;3.65;;
10410;SDS011;5251;52.112;8.606;2023-09-12T11:42:19;5.15;;;4.20;;
10410;SDS011;5251;52.112;8.606;2023-09-12T11:44:48;6.00;;;3.97;;
10410;SDS011;5251;52.112;8.606;2023-09-12T11:47:14;4.75;;;3.67;;
10410;SDS011;5251;52.112;8.606;2023-09-12T11:49:41;4.15;;;3.75;;
10410;SDS011;5251;52.112;8.606;2023-09-12T11:52:13;5.30;;;3.67;;
10410;SDS011;5251;52.112;8.606;2023-09-12T11:54:41;3.95;;;3.60;;
10410;SDS011;5251;52.112;8.606;2023-09-12T11:57:08;3.67;;;3.38;;
10410;SDS011;5251;52.112;8.606;2023-09-12T11:59:42;4.05;;;3.65;;
10410;SDS011;5251;52.112;8.606;2023-09-12T12:02:13;4.05;;;3.33;;
10410;SDS011;5251;52.112;8.606;2023-09-12T12:04:39;4.25;;;3.22;;
10410;SDS011;5251;52.112;8.606;2023-09-12T12:07:05;3.83;;;3.42;;
10410;SDS011;5251;52.112;8.606;2023-09-12T12:09:32;3.92;;;3.53;;
10410;SDS011;5251;52.112;8.606;2023-09-12T12:12:31;6.13;;;3.25;;
10410;SDS011;5251;52.112;8.606;2023-09-12T12:14:50;3.17;;;2.80;;
10410;SDS011;5251;52.112;8.606;2023-09-12T12:17:15;3.80;;;3.50;;
10410;SDS011;5251;52.112;8.606;2023-09-12T12:19:44;4.22;;;3.53;;
10410;SDS011;5251;52.112;8.606;2023-09-12T12:22:10;3.50;;;2.92;;
10410;SDS011;5251;52.112;8.606;2023-09-12T12:24:36;3.67;;;3.00;;
10410;SDS011;5251;52.112;8.606;2023-09-12T12:27:03;3.17;;;2.88;;
10410;SDS011;5251;52.112;8.606;2023-09-12T12:29:29;3.47;;;3.17;;
10410;SDS011;5251;52.112;8.606;2023-09-12T12:32:01;3.60;;;3.30;;
10410;SDS011;5251;52.112;8.606;2023-09-12T12:34:27;3.33;;;3.03;;
10410;SDS011;5251;52.112;8.606;2023-09-12T12:36:53;4.30;;;3.35;;
10410;SDS011;5251;52.112;8.606;2023-09-12T12:39:20;4.57;;;3.83;;
10410;SDS011;5251;52.112;8.606;2023-09-12T12:41:47;4.20;;;3.72;;
10410;SDS011;5251;52.112;8.606;2023-09-12T12:44:12;4.80;;;3.45;;
10410;SDS011;5251;52.112;8.606;2023-09-12T12:46:50;4.13;;;3.65;;
10410;SDS011;5251;52.112;8.606;2023-09-12T12:49:17;4.35;;;3.95;;
10410;SDS011;5251;52.112;8.606;2023-09-12T12:51:44;3.80;;;3.45;;
10410;SDS011;5251;52.112;8.606;2023-09-12T12:54:11;3.95;;;3.55;;
10410;SDS011;5251;52.112;8.606;2023-09-12T12:56:36;4.18;;;3.67;;
10410;SDS011;5251;52.112;8.606;2023-09-12T12:59:04;4.15;;;3.70;;
10410;SDS011;5251;52.112;8.606;2023-09-12T13:01:34;3.72;;;3.42;;
10410;SDS011;5251;52.112;8.606;2023-09-12T13:04:00;4.00;;;3.60;;
10410;SDS011;5251;52.112;8.606;2023-09-12T13:06:26;4.43;;;4.00;;
10410;SDS011;5251;52.112;8.606;2023-09-12T13:08:55;3.88;;;3.45;;
10410;SDS011;5251;52.112;8.606;2023-09-12T13:11:22;4.10;;;3.70;;
10410;SDS011;5251;52.112;8.606;2023-09-12T13:13:48;4.28;;;3.63;;
10410;SDS011;5251;52.112;8.606;2023-09-12T13:16:14;3.40;;;3.10;;
10410;SDS011;5251;52.112;8.606;2023-09-12T13:18:40;3.83;;;3.53;;
10410;SDS011;5251;52.112;8.606;2023-09-12T13:21:06;4.32;;;3.92;;
10410;SDS011;5251;52.112;8.606;2023-09-12T13:23:36;3.90;;;3.60;;
10410;SDS011;5251;52.112;8.606;2023-09-12T13:26:02;3.53;;;3.25;;
10410;SDS011;5251;52.112;8.606;2023-09-12T13:28:29;6.05;;;3.78;;
10410;SDS011;5251;52.112;8.606;2023-09-12T13:30:55;4.10;;;3.70;;
10410;SDS011;5251;52.112;8.606;2023-09-12T13:33:22;4.60;;;3.97;;
10410;SDS011;5251;52.112;8.606;2023-09-12T13:35:48;4.60;;;3.85;;
10410;SDS011;5251;52.112;8.606;2023-09-12T13:38:14;4.00;;;3.70;;
10410;SDS011;5251;52.112;8.606;2023-09-12T13:40:41;4.22;;;3.83;;
10410;SDS011;5251;52.112;8.606;2023-09-12T13:43:08;3.90;;;3.60;;
10410;SDS011;5251;52.112;8.606;2023-09-12T13:45:34;6.53;;;3.63;;
10410;SDS011;5251;52.112;8.606;2023-09-12T13:48:01;4.32;;;3.75;;
10410;SDS011;5251;52.112;8.606;2023-09-12T13:50:28;4.22;;;3.88;;
10410;SDS011;5251;52.112;8.606;2023-09-12T13:52:54;4.13;;;3.72;;
10410;SDS011;5251;52.112;8.606;2023-09-12T13:55:21;3.95;;;3.65;;
10410;SDS011;5251;52.112;8.606;2023-09-12T13:57:47;3.97;;;3.67;;
10410;SDS011;5251;52.112;8.606;2023-09-12T14:00:13;4.18;;;3.78;;
10410;SDS011;5251;52.112;8.606;2023-09-12T14:02:39;4.18;;;3.88;;
10410;SDS011;5251;52.112;8.606;2023-09-12T14:05:05;5.68;;;4.05;;
10410;SDS011;5251;52.112;8.606;2023-09-12T14:07:30;3.75;;;3.40;;
10410;SDS011;5251;52.112;8.606;2023-09-12T14:09:56;4.75;;;4.35;;
10410;SDS011;5251;52.112;8.606;2023-09-12T14:12:22;4.32;;;3.92;;
10410;SDS011;5251;52.112;8.606;2023-09-12T14:14:51;3.70;;;3.40;;
10410;SDS011;5251;52.112;8.606;2023-09-12T14:17:16;3.63;;;3.10;;
10410;SDS011;5251;52.112;8.606;2023-09-12T14:19:42;3.78;;;3.35;;
10410;SDS011;5251;52.112;8.606;2023-09-12T14:22:08;3.40;;;3.10;;
10410;SDS011;5251;52.112;8.606;2023-09-12T14:24:34;3.60;;;3.30;;
10410;SDS011;5251;52.112;8.606;2023-09-12T14:26:59;3.80;;;3.50;;
10410;SDS011;5251;52.112;8.606;2023-09-12T14:29:25;3.50;;;3.20;;
10410;SDS011;5251;52.112;8.606;2023-09-12T14:31:53;3.45;;;3.15;;
10410;SDS011;5251;52.112;8.606;2023-09-12T14:34:23;3.50;;;3.20;;
10410;SDS011;5251;52.112;8.606;2023-09-12T14:36:52;3.78;;;3.35;;
10410;SDS011;5251;52.112;8.606;2023-09-12T14:39:18;4.95;;;3.90;;
10410;SDS011;5251;52.112;8.606;2023-09-12T14:41:44;4.25;;;3.85;;
10410;SDS011;5251;52.112;8.606;2023-09-12T14:44:14;4.00;;;3.60;;
10410;SDS011;5251;52.112;8.606;2023-09-12T14:46:40;4.00;;;3.50;;
10410;SDS011;5251;52.112;8.606;2023-09-12T14:49:05;4.70;;;3.75;;
10410;SDS011;5251;52.112;8.606;2023-09-12T14:51:31;4.07;;;3.67;;
10410;SDS011;5251;52.112;8.606;2023-09-12T14:53:56;4.05;;;3.75;;
10410;SDS011;5251;52.112;8.606;2023-09-12T14:56:22;3.90;;;3.60;;
10410;SDS011;5251;52.112;8.606;2023-09-12T14:58:48;3.90;;;3.60;;
10410;SDS011;5251;52.112;8.606;2023-09-12T15:01:14;4.00;;;3.70;;
10410;SDS011;5251;52.112;8.606;2023-09-12T15:03:39;4.00;;;3.70;;
10410;SDS011;5251;52.112;8.606;2023-09-12T15:06:05;3.92;;;3.63;;
10410;SDS011;5251;52.112;8.606;2023-09-12T15:08:32;4.75;;;4.05;;
10410;SDS011;5251;52.112;8.606;2023-09-12T15:11:01;4.32;;;3.92;;
10410;SDS011;5251;52.112;8.606;2023-09-12T15:13:27;4.22;;;3.83;;
10410;SDS011;5251;52.112;8.606;2023-09-12T15:15:52;3.85;;;3.55;;
10410;SDS011;5251;52.112;8.606;2023-09-12T15:18:18;4.25;;;3.95;;